Time;durP1;ratioP1;P1;durP2;ratioP2;P2;SDS_P1;SDS_P2;PMS_P1;PMS_P2;Temp;Humidity;BMP_temperature;BMP_pressure;BME280_temperature;BME280_humidity;BME280_pressure;Samples;Min_cycle;Max_cycle;Signal;HPM_P1;HPM_P2
2021/03/23 00:00:35;;;;;;;189.53;67.47;;;-1.50;99.90;;;;;;4411072;28;659386;-84
2021/03/23 00:03:23;;;;;;;189.87;63.17;;;-1.50;99.90;;;;;;4438570;28;658578;-83
2021/03/23 00:06:13;;;;;;;190.13;70.37;;;-1.50;99.90;;;;;;4452851;28;659348;-84
2021/03/23 00:09:00;;;;;;;191.00;66.33;;;-1.40;99.90;;;;;;4403289;28;658752;-84
2021/03/23 00:11:48;;;;;;;188.57;65.37;;;-1.30;99.90;;;;;;4395380;28;658359;-84
2021/03/23 00:14:35;;;;;;;199.27;69.87;;;-1.30;99.90;;;;;;4417938;28;659164;-84
2021/03/23 00:17:22;;;;;;;145.93;53.90;;;-1.30;99.90;;;;;;4405882;28;658792;-84
2021/03/23 00:20:11;;;;;;;207.83;71.57;;;-1.30;99.90;;;;;;4415303;28;658517;-83
2021/03/23 00:22:59;;;;;;;210.07;69.82;;;-1.30;99.90;;;;;;4401079;28;658589;-84
2021/03/23 00:25:46;;;;;;;134.37;41.40;;;-1.30;99.90;;;;;;4436589;28;658714;-83
2021/03/23 00:28:33;;;;;;;213.75;73.20;;;-1.10;99.90;;;;;;4412580;28;658620;-83
2021/03/23 00:31:21;;;;;;;216.50;75.10;;;-1.10;99.90;;;;;;4435624;28;659269;-84
2021/03/23 00:34:08;;;;;;;203.87;73.50;;;-1.20;99.90;;;;;;4412070;28;658858;-84
2021/03/23 00:36:55;;;;;;;183.40;63.55;;;-1.10;99.90;;;;;;4435903;28;659013;-84
2021/03/23 00:39:43;;;;;;;188.27;61.67;;;-1.20;99.90;;;;;;4413115;28;658437;-84
2021/03/23 00:42:30;;;;;;;201.07;74.03;;;-1.30;99.90;;;;;;4435998;28;658683;-85
2021/03/23 00:45:17;;;;;;;204.88;74.13;;;-1.20;99.90;;;;;;4412871;28;658893;-85
2021/03/23 00:48:05;;;;;;;193.97;72.17;;;-1.30;99.90;;;;;;4418563;28;659177;-84
2021/03/23 00:51:08;;;;;;;215.73;75.93;;;-1.30;99.90;;;;;;4400248;28;658830;-84
2021/03/23 00:53:55;;;;;;;207.77;73.40;;;-1.30;99.90;;;;;;4411371;28;659159;-84
2021/03/23 00:56:43;;;;;;;221.97;75.50;;;-1.30;99.90;;;;;;4435679;28;658176;-84
2021/03/23 00:59:30;;;;;;;207.30;76.60;;;-1.20;99.90;;;;;;4432229;28;659651;-84
2021/03/23 01:02:18;;;;;;;220.90;76.53;;;-1.20;99.90;;;;;;4414717;28;658770;-84
2021/03/23 01:05:06;;;;;;;229.13;76.03;;;-1.30;99.90;;;;;;4434881;28;659499;-84
2021/03/23 01:07:53;;;;;;;203.45;68.20;;;-1.20;99.90;;;;;;4399891;28;658876;-84
2021/03/23 01:10:42;;;;;;;216.67;73.73;;;-1.10;99.90;;;;;;4418227;28;659226;-83
2021/03/23 01:13:29;;;;;;;189.93;65.87;;;-1.20;99.90;;;;;;4404249;28;658606;-84
2021/03/23 01:16:19;;;;;;;192.63;64.30;;;-1.00;99.90;;;;;;4435854;28;658392;-84
2021/03/23 01:19:06;;;;;;;196.50;70.30;;;-1.00;99.90;;;;;;4397445;28;659157;-85
2021/03/23 01:21:53;;;;;;;194.80;68.87;;;-1.20;99.90;;;;;;4406219;28;659086;-84
2021/03/23 01:24:40;;;;;;;193.97;71.67;;;-1.20;99.90;;;;;;4416638;28;658670;-84
2021/03/23 01:27:27;;;;;;;204.43;68.77;;;-1.20;99.90;;;;;;4408109;28;658452;-84
2021/03/23 01:30:17;;;;;;;209.03;69.83;;;-1.10;99.90;;;;;;4424714;28;658122;-84
2021/03/23 01:33:04;;;;;;;110.13;32.83;;;-1.20;99.90;;;;;;4410485;28;659703;-84
2021/03/23 01:35:51;;;;;;;174.03;60.23;;;-0.90;99.90;;;;;;4414877;28;658663;-84
2021/03/23 01:38:38;;;;;;;176.23;65.60;;;-1.00;99.90;;;;;;4397077;28;658378;-84
2021/03/23 01:41:25;;;;;;;182.70;63.87;;;-1.10;99.90;;;;;;4416030;28;658629;-84
2021/03/23 01:44:12;;;;;;;174.47;62.83;;;-1.20;99.90;;;;;;4411460;28;658580;-84
2021/03/23 01:47:00;;;;;;;194.50;64.67;;;-1.20;99.90;;;;;;4420775;28;658643;-84
2021/03/23 01:49:47;;;;;;;176.93;63.33;;;-1.20;99.90;;;;;;4435179;28;659051;-84
2021/03/23 01:52:34;;;;;;;187.43;62.10;;;-1.30;99.90;;;;;;4452769;28;659240;-84
2021/03/23 01:55:21;;;;;;;166.10;59.20;;;-1.30;99.90;;;;;;4447624;28;658804;-84
2021/03/23 01:58:09;;;;;;;179.33;61.53;;;-1.30;99.90;;;;;;4407641;28;658795;-84
2021/03/23 02:00:56;;;;;;;136.57;46.60;;;-1.30;99.90;;;;;;4417489;28;658452;-84
2021/03/23 02:03:44;;;;;;;167.00;60.22;;;-1.10;99.90;;;;;;4394606;28;658916;-85
2021/03/23 02:06:36;;;;;;;176.20;60.37;;;-1.10;99.90;;;;;;4424337;28;658219;-85
2021/03/23 02:09:25;;;;;;;151.40;55.37;;;-1.10;99.90;;;;;;4389661;28;659173;-84
2021/03/23 02:12:14;;;;;;;158.50;59.37;;;-1.10;99.90;;;;;;4409730;28;658653;-84
2021/03/23 02:15:01;;;;;;;168.77;60.50;;;-1.10;99.90;;;;;;4443853;28;659087;-84
2021/03/23 02:18:06;;;;;;;153.90;57.23;;;-1.20;99.90;;;;;;4429171;28;659000;-85
2021/03/23 02:21:01;;;;;;;133.93;45.17;;;-1.10;99.90;;;;;;4428854;28;658468;-84
2021/03/23 02:23:49;;;;;;;171.37;60.93;;;-1.10;99.90;;;;;;4429138;28;659091;-84
2021/03/23 02:26:37;;;;;;;158.60;57.17;;;-1.00;99.90;;;;;;4440824;28;658341;-84
2021/03/23 02:29:23;;;;;;;163.03;56.47;;;-1.00;99.90;;;;;;4393148;28;658265;-85
2021/03/23 02:32:10;;;;;;;163.90;59.87;;;-1.00;99.90;;;;;;4427098;28;658973;-84
2021/03/23 02:34:57;;;;;;;156.70;58.17;;;-1.00;99.90;;;;;;4404816;28;658658;-84
2021/03/23 02:37:45;;;;;;;162.23;57.93;;;-1.10;99.90;;;;;;4438124;28;659775;-84
2021/03/23 02:40:32;;;;;;;147.33;51.33;;;-1.10;99.90;;;;;;4415297;28;658997;-84
2021/03/23 02:43:19;;;;;;;170.63;58.23;;;-1.00;99.90;;;;;;4422790;28;658847;-84
2021/03/23 02:46:06;;;;;;;155.80;58.67;;;-1.00;99.90;;;;;;4433667;28;659265;-84
2021/03/23 02:48:53;;;;;;;150.37;55.83;;;-1.00;99.90;;;;;;4397077;28;659088;-84
2021/03/23 02:51:41;;;;;;;152.07;56.37;;;-1.10;99.90;;;;;;4415676;28;658905;-85
2021/03/23 02:54:32;;;;;;;152.67;56.53;;;-1.00;99.90;;;;;;4392124;28;658808;-84
2021/03/23 02:57:19;;;;;;;141.43;54.60;;;-1.10;99.90;;;;;;4415275;28;658885;-84
2021/03/23 03:00:08;;;;;;;144.53;54.97;;;-1.20;99.90;;;;;;4429044;28;658917;-84
2021/03/23 03:02:55;;;;;;;139.83;54.23;;;-1.10;99.90;;;;;;4398434;28;659111;-84
2021/03/23 03:05:42;;;;;;;134.10;52.37;;;-1.00;99.90;;;;;;4411228;28;658430;-85
2021/03/23 03:08:29;;;;;;;142.60;52.60;;;-1.10;99.90;;;;;;4416733;28;658770;-85
2021/03/23 03:11:17;;;;;;;139.17;48.20;;;-1.10;99.90;;;;;;4433478;28;659234;-85
2021/03/23 03:14:04;;;;;;;154.57;53.20;;;-1.10;99.90;;;;;;4411334;28;659024;-85
2021/03/23 03:16:51;;;;;;;132.75;49.92;;;-1.10;99.90;;;;;;4447908;28;659035;-85
2021/03/23 03:19:38;;;;;;;145.00;51.10;;;-1.20;99.90;;;;;;4410151;28;658536;-85
2021/03/23 03:22:25;;;;;;;136.13;50.85;;;-1.10;99.90;;;;;;4416233;28;659366;-84
2021/03/23 03:25:13;;;;;;;136.23;50.30;;;-1.00;99.90;;;;;;4394188;28;658935;-85
2021/03/23 03:28:01;;;;;;;139.53;51.00;;;-1.10;99.90;;;;;;4391037;28;659076;-85
2021/03/23 03:30:48;;;;;;;143.20;52.00;;;-1.10;99.90;;;;;;4419423;28;658493;-84
2021/03/23 03:33:35;;;;;;;147.47;51.27;;;-1.20;99.90;;;;;;4410870;28;658594;-85
2021/03/23 03:36:25;;;;;;;147.13;51.73;;;-1.20;99.90;;;;;;4415361;28;659075;-85
2021/03/23 03:39:12;;;;;;;153.07;53.27;;;-1.20;99.90;;;;;;4380863;28;658753;-84
2021/03/23 03:41:59;;;;;;;144.73;50.20;;;-1.30;99.90;;;;;;4422612;28;659087;-84
2021/03/23 03:44:47;;;;;;;142.03;52.83;;;-1.30;99.90;;;;;;4438366;28;659101;-84
2021/03/23 03:47:34;;;;;;;138.17;52.80;;;-1.30;99.90;;;;;;4409236;28;659105;-84
2021/03/23 03:50:21;;;;;;;142.07;50.43;;;-1.30;99.90;;;;;;4435721;28;658970;-84
2021/03/23 03:53:09;;;;;;;131.97;49.27;;;-1.30;99.90;;;;;;4399316;28;659125;-84
2021/03/23 03:55:56;;;;;;;143.10;51.13;;;-1.30;99.90;;;;;;4422535;28;658674;-84
2021/03/23 03:58:43;;;;;;;145.90;51.80;;;-1.30;99.90;;;;;;4413078;28;659114;-85
2021/03/23 04:01:30;;;;;;;136.27;50.97;;;-1.30;99.90;;;;;;4437287;28;659406;-84
2021/03/23 04:04:17;;;;;;;137.63;49.93;;;-1.30;99.90;;;;;;4395104;28;659414;-85
2021/03/23 04:07:05;;;;;;;148.27;51.93;;;-1.40;99.90;;;;;;4434347;28;659227;-85
2021/03/23 04:09:52;;;;;;;128.63;50.00;;;-1.40;99.90;;;;;;4394763;28;658905;-84
2021/03/23 04:12:39;;;;;;;133.10;50.87;;;-1.40;99.90;;;;;;4418359;28;659196;-85
2021/03/23 04:15:28;;;;;;;143.27;53.10;;;-1.40;99.90;;;;;;4418179;28;658647;-84
2021/03/23 04:18:18;;;;;;;144.40;53.93;;;-1.40;99.90;;;;;;4395306;28;659922;-84
2021/03/23 04:21:05;;;;;;;150.23;52.77;;;-1.50;99.90;;;;;;4396247;28;658801;-84
2021/03/23 04:23:52;;;;;;;145.10;53.00;;;-1.40;99.90;;;;;;4395551;28;658549;-84
2021/03/23 04:26:39;;;;;;;150.37;52.97;;;-1.40;99.90;;;;;;4420303;28;659127;-84
2021/03/23 04:29:26;;;;;;;147.85;54.08;;;-1.40;99.90;;;;;;4427996;28;658692;-85
2021/03/23 04:32:13;;;;;;;151.43;54.37;;;-1.50;99.90;;;;;;4403941;28;658280;-84
2021/03/23 04:35:01;;;;;;;153.00;55.63;;;-1.40;99.90;;;;;;4426205;28;659478;-85
2021/03/23 04:37:48;;;;;;;146.57;53.30;;;-1.40;99.90;;;;;;4395048;28;658763;-84
2021/03/23 04:40:35;;;;;;;142.90;54.07;;;-1.40;99.90;;;;;;4434198;28;659782;-84
2021/03/23 04:43:24;;;;;;;138.05;53.55;;;-1.40;99.90;;;;;;4430606;28;658626;-84
2021/03/23 04:46:11;;;;;;;155.70;56.43;;;-1.40;99.90;;;;;;4434033;28;658808;-84
2021/03/23 04:48:59;;;;;;;150.63;54.97;;;-1.40;99.90;;;;;;4390978;28;659304;-84
2021/03/23 04:51:46;;;;;;;152.23;56.87;;;-1.40;99.90;;;;;;4413824;28;658900;-83
2021/03/23 04:54:35;;;;;;;145.53;54.07;;;-1.40;99.90;;;;;;4390891;28;658840;-83
2021/03/23 04:57:22;;;;;;;151.77;55.50;;;-1.30;99.90;;;;;;4419660;28;658710;-83
2021/03/23 05:00:11;;;;;;;150.67;56.13;;;-1.30;99.90;;;;;;4436390;28;659137;-83
2021/03/23 05:02:58;;;;;;;146.10;55.53;;;-1.30;99.90;;;;;;4406444;28;658437;-84
2021/03/23 05:05:45;;;;;;;151.47;54.60;;;-1.20;99.90;;;;;;4417957;28;659573;-83
2021/03/23 05:08:33;;;;;;;156.30;57.80;;;-1.30;99.90;;;;;;4394998;28;658701;-83
2021/03/23 05:11:27;;;;;;;147.40;56.10;;;-1.20;99.90;;;;;;4417061;28;659436;-84
2021/03/23 05:14:14;;;;;;;145.57;56.27;;;-1.20;99.90;;;;;;4396137;28;658437;-83
2021/03/23 05:17:01;;;;;;;146.60;54.20;;;-1.20;99.90;;;;;;4434044;28;658887;-83
2021/03/23 05:19:48;;;;;;;149.80;55.47;;;-1.10;99.90;;;;;;4410860;28;658346;-84
2021/03/23 05:22:35;;;;;;;142.33;54.50;;;-1.00;99.90;;;;;;4430983;28;659965;-83
2021/03/23 05:25:23;;;;;;;150.33;55.27;;;-1.00;99.90;;;;;;4412497;28;658900;-84
2021/03/23 05:28:11;;;;;;;145.40;52.93;;;-0.90;99.90;;;;;;4422988;28;659010;-84
2021/03/23 05:30:58;;;;;;;148.73;53.23;;;-0.90;99.90;;;;;;4411531;28;658712;-84
2021/03/23 05:33:45;;;;;;;151.17;52.53;;;-0.80;99.90;;;;;;4423243;28;659140;-83
2021/03/23 05:36:33;;;;;;;135.13;51.77;;;-0.70;99.90;;;;;;4397309;28;658943;-83
2021/03/23 05:39:20;;;;;;;140.70;52.63;;;-0.70;99.90;;;;;;4417952;28;659868;-84
2021/03/23 05:42:11;;;;;;;134.73;50.90;;;-0.70;99.90;;;;;;4393659;28;658876;-84
2021/03/23 05:45:03;;;;;;;138.93;50.55;;;-0.50;99.90;;;;;;4390802;28;659259;-84
2021/03/23 05:48:16;;;;;;;132.13;48.57;;;-0.40;99.90;;;;;;4419569;28;659617;-84
2021/03/23 05:51:09;;;;;;;133.35;45.72;;;-0.30;99.90;;;;;;4394480;28;659414;-84
2021/03/23 05:53:58;;;;;;;147.73;50.70;;;-0.20;99.90;;;;;;4394983;28;659006;-84
2021/03/23 05:56:45;;;;;;;121.10;48.77;;;0.00;99.90;;;;;;4411755;28;659036;-84
2021/03/23 05:59:37;;;;;;;132.90;49.33;;;0.00;99.90;;;;;;4404125;28;657707;-84
2021/03/23 06:02:28;;;;;;;134.43;49.67;;;0.00;99.90;;;;;;4399626;28;658763;-84
2021/03/23 06:05:28;;;;;;;121.35;42.33;;;0.00;99.90;;;;;;4411732;28;658888;-84
2021/03/23 06:08:28;;;;;;;113.70;43.90;;;0.20;99.90;;;;;;4394243;28;659260;-84
2021/03/23 06:11:41;;;;;;;119.70;45.07;;;0.40;99.90;;;;;;4393181;28;658710;-84
2021/03/23 06:14:41;;;;;;;127.20;45.70;;;0.40;99.90;;;;;;4387905;28;659779;-83
2021/03/23 06:17:36;;;;;;;113.20;44.27;;;0.40;99.90;;;;;;4419931;28;658587;-83
2021/03/23 06:20:46;;;;;;;118.70;46.20;;;0.50;99.90;;;;;;4398434;28;658550;-84
2021/03/23 06:23:59;;;;;;;109.47;40.08;;;0.70;99.90;;;;;;4408882;28;658867;-83
2021/03/23 06:26:49;;;;;;;104.53;37.13;;;0.80;99.90;;;;;;4402137;28;658861;-83
2021/03/23 06:30:07;;;;;;;111.23;42.47;;;1.00;99.90;;;;;;4411088;28;658991;-83
2021/03/23 06:32:54;;;;;;;111.87;42.73;;;1.00;99.90;;;;;;4399326;28;658970;-82
2021/03/23 06:35:43;;;;;;;108.97;42.20;;;1.00;99.90;;;;;;4431414;28;658672;-83
2021/03/23 06:38:32;;;;;;;115.17;43.13;;;1.00;99.90;;;;;;4401589;28;659233;-83
2021/03/23 06:41:22;;;;;;;101.97;36.00;;;1.10;99.90;;;;;;4399439;28;659434;-83
2021/03/23 06:44:22;;;;;;;116.27;41.57;;;1.40;99.90;;;;;;4397607;28;659861;-84
2021/03/23 06:47:35;;;;;;;121.57;42.20;;;1.40;99.90;;;;;;4395921;28;658894;-84
2021/03/23 06:50:30;;;;;;;89.57;32.30;;;1.40;99.90;;;;;;4394233;28;659071;-83
2021/03/23 06:53:19;;;;;;;44.53;15.23;;;1.60;99.90;;;;;;4381414;28;657536;-85
2021/03/23 06:56:20;;;;;;;99.97;34.93;;;1.70;99.90;;;;;;4435138;28;658462;-85
2021/03/23 06:59:13;;;;;;;106.70;38.50;;;1.70;99.90;;;;;;4376521;28;658210;-86
2021/03/23 07:02:03;;;;;;;102.70;37.70;;;1.70;99.90;;;;;;4407754;28;659630;-87
2021/03/23 07:04:51;;;;;;;93.87;38.27;;;1.70;99.90;;;;;;4402471;28;659132;-85
2021/03/23 07:07:41;;;;;;;101.18;37.42;;;1.70;99.90;;;;;;4410810;28;657717;-85
2021/03/23 07:10:29;;;;;;;94.53;35.50;;;1.60;99.90;;;;;;4394233;28;659642;-85
2021/03/23 07:13:31;;;;;;;88.47;34.03;;;1.80;99.90;;;;;;4413996;28;657274;-84
2021/03/23 07:16:28;;;;;;;104.77;37.10;;;1.80;99.90;;;;;;4394525;28;658117;-85
2021/03/23 07:19:16;;;;;;;88.53;35.70;;;1.90;99.90;;;;;;4406289;28;658501;-85
2021/03/23 07:22:05;;;;;;;90.20;36.00;;;2.20;99.90;;;;;;4411668;28;657961;-86
2021/03/23 07:24:54;;;;;;;82.57;35.40;;;2.10;99.90;;;;;;4416635;28;657508;-85
2021/03/23 07:27:41;;;;;;;92.68;34.47;;;2.10;99.90;;;;;;4423432;28;657674;-85
2021/03/23 07:30:30;;;;;;;90.73;36.90;;;2.40;99.90;;;;;;4390454;28;657518;-86
2021/03/23 07:33:20;;;;;;;67.13;25.40;;;2.40;99.90;;;;;;4403539;28;657926;-86
2021/03/23 07:36:08;;;;;;;90.97;35.50;;;2.60;99.90;;;;;;4394858;28;657593;-85
2021/03/23 07:38:58;;;;;;;88.97;29.73;;;2.70;99.90;;;;;;4417160;28;658160;-85
2021/03/23 07:41:47;;;;;;;93.67;34.67;;;2.50;99.90;;;;;;4409208;28;658449;-85
2021/03/23 07:44:37;;;;;;;83.07;34.70;;;2.50;99.90;;;;;;4390793;28;658320;-86
2021/03/23 07:47:32;;;;;;;32.67;10.83;;;2.50;99.90;;;;;;4428148;28;658331;-84
2021/03/23 07:50:23;;;;;;;73.20;24.60;;;2.70;99.90;;;;;;4414574;28;657608;-84
2021/03/23 07:53:13;;;;;;;34.40;12.73;;;3.00;99.90;;;;;;4398299;28;658161;-83
2021/03/23 07:56:04;;;;;;;69.33;26.90;;;2.90;99.90;;;;;;4393921;28;658273;-84
2021/03/23 07:58:54;;;;;;;73.40;28.87;;;3.00;99.90;;;;;;4398127;28;657301;-85
2021/03/23 08:01:46;;;;;;;79.23;28.40;;;3.10;99.90;;;;;;4398306;28;657528;-86
2021/03/23 08:04:44;;;;;;;71.33;27.43;;;3.00;99.90;;;;;;4397271;28;658134;-85
2021/03/23 08:07:34;;;;;;;63.37;24.67;;;3.20;99.90;;;;;;4380702;28;657195;-86
2021/03/23 08:10:26;;;;;;;62.43;24.20;;;3.40;99.90;;;;;;4380940;28;657455;-86
2021/03/23 08:13:22;;;;;;;59.17;24.50;;;3.40;99.90;;;;;;4385240;28;658691;-86
2021/03/23 08:16:13;;;;;;;64.50;24.03;;;3.30;99.90;;;;;;4392844;28;657406;-86
2021/03/23 08:19:21;;;;;;;55.93;23.13;;;3.40;99.90;;;;;;4396298;28;657896;-86
2021/03/23 08:22:45;;;;;;;49.33;18.92;;;3.40;99.90;;;;;;4380111;28;658441;-86
2021/03/23 08:25:45;;;;;;;57.60;21.10;;;3.60;99.90;;;;;;4386047;28;657969;-87
2021/03/23 08:28:38;;;;;;;58.60;22.10;;;3.50;99.90;;;;;;4394127;28;658568;-86
2021/03/23 08:31:35;;;;;;;59.60;20.57;;;3.30;99.90;;;;;;4382418;28;658321;-87
2021/03/23 08:34:36;;;;;;;55.40;20.63;;;3.30;99.90;;;;;;4402008;28;657476;-87
2021/03/23 08:37:37;;;;;;;50.13;18.60;;;3.40;99.90;;;;;;4406573;28;657527;-86
2021/03/23 08:40:28;;;;;;;48.63;17.63;;;3.70;99.90;;;;;;4394532;28;658590;-88
2021/03/23 08:43:17;;;;;;;46.07;15.63;;;3.80;99.90;;;;;;4395421;28;657927;-87
2021/03/23 08:46:07;;;;;;;41.97;15.70;;;4.10;99.90;;;;;;4410313;28;658016;-86
2021/03/23 08:48:55;;;;;;;34.50;13.40;;;4.20;99.90;;;;;;4388294;28;658963;-88
2021/03/23 08:51:45;;;;;;;36.77;13.67;;;4.30;99.90;;;;;;4386158;28;657940;-87
2021/03/23 08:54:44;;;;;;;38.00;14.13;;;4.30;99.90;;;;;;4409969;28;657528;-87
2021/03/23 08:57:52;;;;;;;39.87;14.13;;;4.40;99.90;;;;;;4396382;28;658113;-87
2021/03/23 09:00:53;;;;;;;36.27;13.73;;;4.50;99.90;;;;;;4386539;28;658659;-88
2021/03/23 09:03:48;;;;;;;18.77;7.27;;;4.70;99.90;;;;;;4400686;28;658458;-89
2021/03/23 09:06:47;;;;;;;33.87;11.87;;;4.90;99.90;;;;;;4393013;28;657267;-89
2021/03/23 09:09:37;;;;;;;28.80;11.63;;;5.20;99.90;;;;;;4383414;28;658473;-91
2021/03/23 09:12:40;;;;;;;30.30;11.93;;;5.10;99.90;;;;;;4397582;28;658028;-89
2021/03/23 09:15:28;;;;;;;29.13;11.33;;;5.30;99.90;;;;;;4377573;28;657414;-87
2021/03/23 09:18:26;;;;;;;30.67;11.07;;;5.30;99.90;;;;;;4422302;28;657987;-90
2021/03/23 09:21:14;;;;;;;23.63;8.97;;;5.40;99.90;;;;;;4396563;28;658226;-89
2021/03/23 09:24:22;;;;;;;25.37;9.87;;;5.50;99.90;;;;;;4416317;28;656374;-90
2021/03/23 09:27:13;;;;;;;19.80;8.93;;;5.30;99.90;;;;;;4385663;28;657001;-88
2021/03/23 09:30:00;;;;;;;13.83;4.73;;;5.50;99.90;;;;;;4394325;28;656674;-90
2021/03/23 09:33:12;;;;;;;28.42;10.55;;;5.80;99.90;;;;;;4400998;28;656590;-88
2021/03/23 09:36:23;;;;;;;33.00;11.40;;;6.00;99.90;;;;;;4398446;28;657525;-91
2021/03/23 09:39:46;;;;;;;29.92;9.93;;;6.30;99.90;;;;;;4397444;28;657518;-87
2021/03/23 09:42:37;;;;;;;31.57;9.90;;;6.50;99.90;;;;;;4389335;28;657190;-89
2021/03/23 09:45:34;;;;;;;28.17;9.80;;;6.20;99.90;;;;;;4393482;28;657666;-88
2021/03/23 09:48:56;;;;;;;27.33;10.77;;;6.40;99.90;;;;;;4385674;28;656441;-89
2021/03/23 09:51:56;;;;;;;30.13;10.23;;;6.50;99.90;;;;;;4403969;28;657977;-88
2021/03/23 09:54:52;;;;;;;23.93;9.27;;;6.60;99.90;;;;;;4386149;28;657884;-88
2021/03/23 09:57:39;;;;;;;19.30;7.23;;;6.80;99.90;;;;;;4396976;28;657187;-89
2021/03/23 10:00:28;;;;;;;20.03;8.17;;;6.40;99.90;;;;;;4417220;28;656772;-88
2021/03/23 10:03:20;;;;;;;19.03;6.83;;;6.10;99.90;;;;;;4391658;28;657055;-88
2021/03/23 10:06:08;;;;;;;23.03;9.10;;;5.70;99.90;;;;;;4425071;28;656537;-91
2021/03/23 10:08:58;;;;;;;21.93;8.97;;;5.50;99.90;;;;;;4407529;28;656665;-92
2021/03/23 10:11:46;;;;;;;25.23;9.10;;;5.50;99.90;;;;;;4411291;28;656548;-89
2021/03/23 10:14:38;;;;;;;25.80;8.53;;;5.60;99.90;;;;;;4411711;28;656995;-88
2021/03/23 10:17:26;;;;;;;22.23;8.03;;;6.00;99.90;;;;;;4395945;28;656942;-89
2021/03/23 10:20:14;;;;;;;23.07;8.20;;;6.20;99.90;;;;;;4402941;28;656736;-91
2021/03/23 10:23:02;;;;;;;19.53;6.90;;;6.70;99.90;;;;;;4415965;28;656188;-89
2021/03/23 10:25:50;;;;;;;29.90;8.60;;;6.80;99.90;;;;;;4411388;28;656882;-88
2021/03/23 10:28:39;;;;;;;16.10;7.53;;;6.70;99.90;;;;;;4422480;28;657370;-86
2021/03/23 10:31:31;;;;;;;17.60;7.07;;;6.60;99.90;;;;;;4429108;28;656774;-88
2021/03/23 10:34:20;;;;;;;21.10;6.68;;;6.50;99.90;;;;;;4412738;28;656429;-88
2021/03/23 10:37:08;;;;;;;18.98;7.88;;;6.30;99.90;;;;;;4394013;28;656756;-88
2021/03/23 10:39:55;;;;;;;23.67;8.83;;;6.20;99.90;;;;;;4432278;28;656728;-89
2021/03/23 10:42:51;;;;;;;19.50;8.23;;;5.90;99.90;;;;;;4412050;28;656461;-86
2021/03/23 10:45:39;;;;;;;20.10;7.90;;;5.60;99.90;;;;;;4406708;28;656663;-89
2021/03/23 10:48:27;;;;;;;20.03;7.73;;;5.30;99.90;;;;;;4415683;28;656544;-89
2021/03/23 10:51:18;;;;;;;20.83;8.40;;;5.10;99.90;;;;;;4406659;28;657558;-89
2021/03/23 10:54:07;;;;;;;11.63;5.53;;;5.10;99.90;;;;;;4405225;28;656767;-89
2021/03/23 10:56:56;;;;;;;22.93;7.73;;;5.00;99.90;;;;;;4407665;28;657132;-87
2021/03/23 10:59:44;;;;;;;23.20;8.43;;;5.10;99.90;;;;;;4409148;28;656772;-90
2021/03/23 11:02:32;;;;;;;24.83;8.97;;;5.30;99.90;;;;;;4414849;28;656914;-88
2021/03/23 11:05:20;;;;;;;21.23;8.80;;;5.60;99.90;;;;;;4395358;28;656383;-90
2021/03/23 11:08:12;;;;;;;23.30;8.87;;;6.00;99.90;;;;;;4391953;28;656827;-89
2021/03/23 11:11:00;;;;;;;20.27;8.77;;;6.60;99.90;;;;;;4388499;28;657619;-89
2021/03/23 11:13:47;;;;;;;19.07;7.83;;;7.00;99.90;;;;;;4428789;28;656609;-86
2021/03/23 11:16:37;;;;;;;16.77;7.40;;;7.00;99.90;;;;;;4415975;28;657632;-90
2021/03/23 11:19:28;;;;;;;23.53;7.90;;;6.80;99.90;;;;;;4410068;28;657253;-91
2021/03/23 11:22:20;;;;;;;20.10;9.07;;;6.90;99.90;;;;;;4412002;28;657168;-89
2021/03/23 11:25:10;;;;;;;25.20;8.73;;;6.90;99.90;;;;;;4390438;28;656868;-87
2021/03/23 11:27:58;;;;;;;21.17;7.93;;;7.10;99.90;;;;;;4413469;28;657186;-88
2021/03/23 11:30:45;;;;;;;26.00;7.80;;;6.90;99.90;;;;;;4421421;28;656666;-88
2021/03/23 11:33:33;;;;;;;22.30;8.33;;;6.80;99.90;;;;;;4419261;28;657349;-86
2021/03/23 11:36:24;;;;;;;20.37;8.60;;;7.00;99.90;;;;;;4438640;28;657571;-89
2021/03/23 11:39:13;;;;;;;16.67;7.37;;;7.40;99.90;;;;;;4401796;28;656946;-89
2021/03/23 11:42:03;;;;;;;24.27;8.80;;;7.50;99.90;;;;;;4413183;28;657057;-89
2021/03/23 11:44:50;;;;;;;19.73;7.40;;;7.60;99.90;;;;;;4395224;28;656795;-89
2021/03/23 11:47:42;;;;;;;16.17;7.07;;;7.60;99.90;;;;;;4421001;28;656755;-88
2021/03/23 11:50:31;;;;;;;15.83;6.30;;;7.40;99.90;;;;;;4407449;28;657356;-88
2021/03/23 11:53:19;;;;;;;14.70;6.20;;;8.00;99.90;;;;;;4260945;28;656661;-88
2021/03/23 11:56:07;;;;;;;18.60;6.40;;;8.40;99.90;;;;;;4321650;28;655987;-88
2021/03/23 11:58:54;;;;;;;13.27;6.20;;;8.80;99.90;;;;;;4416397;28;657120;-88
2021/03/23 12:01:42;;;;;;;13.05;5.68;;;8.70;99.90;;;;;;4437090;28;656758;-87
2021/03/23 12:04:30;;;;;;;18.97;6.17;;;8.60;99.90;;;;;;4411966;28;657326;-91
2021/03/23 12:07:32;;;;;;;14.53;6.70;;;8.50;99.70;;;;;;4419542;28;656561;-87
2021/03/23 12:10:24;;;;;;;18.07;7.23;;;8.10;99.60;;;;;;4407672;28;657430;-90
2021/03/23 12:13:18;;;;;;;16.07;6.87;;;7.80;99.90;;;;;;4414975;28;656520;-88
2021/03/23 12:16:10;;;;;;;17.90;6.97;;;7.60;99.90;;;;;;4409321;28;657428;-88
2021/03/23 12:18:58;;;;;;;19.80;7.07;;;7.30;99.90;;;;;;4430722;28;656985;-86
2021/03/23 12:21:46;;;;;;;22.42;7.78;;;7.20;99.90;;;;;;4434604;28;657636;-89
2021/03/23 12:24:35;;;;;;;21.40;7.97;;;7.00;99.90;;;;;;4388080;28;656323;-87
2021/03/23 12:27:24;;;;;;;17.30;7.77;;;6.80;99.90;;;;;;4418001;28;657205;-87
2021/03/23 12:30:12;;;;;;;18.83;7.77;;;6.50;99.90;;;;;;4438005;28;656170;-88
2021/03/23 12:32:59;;;;;;;27.20;7.10;;;6.40;99.90;;;;;;4414561;28;657419;-88
2021/03/23 12:35:46;;;;;;;24.80;8.53;;;6.50;99.90;;;;;;4426989;28;656356;-88
2021/03/23 12:38:34;;;;;;;22.53;8.70;;;6.40;99.90;;;;;;4405388;28;656734;-89
2021/03/23 12:41:27;;;;;;;22.70;8.40;;;6.60;99.90;;;;;;4432452;28;656413;-88
2021/03/23 12:44:14;;;;;;;19.40;8.50;;;6.80;99.90;;;;;;4409873;28;656795;-89
2021/03/23 12:47:01;;;;;;;26.50;8.60;;;7.40;99.90;;;;;;4431359;28;656710;-88
2021/03/23 12:49:48;;;;;;;20.17;8.43;;;8.40;99.90;;;;;;4411534;28;656890;-89
2021/03/23 12:52:35;;;;;;;19.93;7.27;;;8.90;99.90;;;;;;4429915;28;657204;-89
2021/03/23 12:55:23;;;;;;;17.93;7.07;;;9.60;98.10;;;;;;4401641;28;656672;-87
2021/03/23 12:58:14;;;;;;;24.40;9.47;;;9.40;96.20;;;;;;4417079;28;657073;-87
2021/03/23 13:01:01;;;;;;;26.30;11.07;;;9.70;98.30;;;;;;4366698;28;657214;-87
2021/03/23 13:03:48;;;;;;;18.97;7.87;;;10.30;97.10;;;;;;4412946;28;657752;-86
2021/03/23 13:06:35;;;;;;;22.53;8.57;;;10.60;93.40;;;;;;4421850;28;657931;-87
2021/03/23 13:09:22;;;;;;;22.67;10.57;;;11.10;91.30;;;;;;4415724;28;657764;-86
2021/03/23 13:12:10;;;;;;;17.13;8.90;;;11.70;92.80;;;;;;4427959;28;659651;-88
2021/03/23 13:14:58;;;;;;;21.95;9.40;;;12.00;91.20;;;;;;4417850;28;658083;-87
2021/03/23 13:17:46;;;;;;;18.93;9.07;;;10.90;88.40;;;;;;4434417;28;657805;-87
2021/03/23 13:20:33;;;;;;;19.90;9.13;;;9.50;90.70;;;;;;4403234;28;657863;-87
2021/03/23 13:23:25;;;;;;;17.30;7.87;;;8.90;92.00;;;;;;4432395;28;657586;-88
2021/03/23 13:26:12;;;;;;;15.30;7.85;;;8.20;92.80;;;;;;4403319;28;656676;-86
2021/03/23 13:29:01;;;;;;;17.97;7.30;;;8.00;94.00;;;;;;4439038;28;657072;-89
2021/03/23 13:31:50;;;;;;;16.35;8.02;;;7.90;94.20;;;;;;4409410;28;656863;-88
2021/03/23 13:34:38;;;;;;;21.97;9.37;;;7.70;94.00;;;;;;4433043;28;656760;-88
2021/03/23 13:37:26;;;;;;;19.60;8.63;;;7.50;94.40;;;;;;4407124;28;656601;-87
2021/03/23 13:40:17;;;;;;;19.67;8.53;;;7.40;94.40;;;;;;4414697;28;657118;-86
2021/03/23 13:43:05;;;;;;;18.87;8.83;;;7.10;94.40;;;;;;4407862;28;657407;-88
2021/03/23 13:45:56;;;;;;;17.53;8.00;;;7.00;95.10;;;;;;4421605;28;655766;-88
2021/03/23 13:48:44;;;;;;;22.20;8.87;;;6.80;95.80;;;;;;4387106;28;656588;-85
2021/03/23 13:51:31;;;;;;;21.67;10.00;;;6.60;96.10;;;;;;4427850;28;656692;-88
2021/03/23 13:54:18;;;;;;;16.17;7.67;;;6.50;96.70;;;;;;4397871;28;657602;-88
2021/03/23 13:57:07;;;;;;;23.97;9.50;;;6.60;97.30;;;;;;4433101;28;656665;-88
2021/03/23 13:59:54;;;;;;;15.70;8.17;;;6.60;98.00;;;;;;4415128;28;657460;-87
2021/03/23 14:02:41;;;;;;;22.53;10.63;;;6.70;98.70;;;;;;4420149;28;657099;-86
2021/03/23 14:05:29;;;;;;;24.63;10.77;;;6.60;98.90;;;;;;4408043;28;657467;-85
2021/03/23 14:08:17;;;;;;;26.57;11.37;;;6.70;99.10;;;;;;4445591;28;657238;-86
2021/03/23 14:11:05;;;;;;;24.57;11.00;;;6.80;99.40;;;;;;4392983;28;658202;-86
2021/03/23 14:13:52;;;;;;;32.93;11.53;;;6.90;99.00;;;;;;4422977;28;657750;-85
2021/03/23 14:16:40;;;;;;;21.87;10.60;;;6.80;98.90;;;;;;4431634;28;658152;-86